sensor_id;sensor_type;location;lat;lon;timestamp;temperature;humidity
3202;DHT22;34843;48.744;8.958;2022-12-20T00:02:07;4.60;99.90
3202;DHT22;34843;48.744;8.958;2022-12-20T00:04:33;4.60;99.90
3202;DHT22;34843;48.744;8.958;2022-12-20T00:06:58;4.60;99.90
3202;DHT22;34843;48.744;8.958;2022-12-20T00:09:24;4.60;99.90
3202;DHT22;34843;48.744;8.958;2022-12-20T00:11:50;4.60;99.90
3202;DHT22;34843;48.744;8.958;2022-12-20T00:14:15;4.60;99.90
3202;DHT22;34843;48.744;8.958;2022-12-20T00:16:41;4.60;99.90
3202;DHT22;34843;48.744;8.958;2022-12-20T00:19:08;4.60;99.90
3202;DHT22;34843;48.744;8.958;2022-12-20T00:21:34;4.60;99.90
3202;DHT22;34843;48.744;8.958;2022-12-20T00:24:01;4.60;99.90
3202;DHT22;34843;48.744;8.958;2022-12-20T00:26:28;4.60;99.90
3202;DHT22;34843;48.744;8.958;2022-12-20T00:28:54;4.60;99.90
3202;DHT22;34843;48.744;8.958;2022-12-20T00:31:22;4.60;99.90
3202;DHT22;34843;48.744;8.958;2022-12-20T00:33:50;4.60;99.90
3202;DHT22;34843;48.744;8.958;2022-12-20T00:36:17;4.70;99.90
3202;DHT22;34843;48.744;8.958;2022-12-20T00:38:47;4.70;99.90
3202;DHT22;34843;48.744;8.958;2022-12-20T00:41:16;4.70;99.90
3202;DHT22;34843;48.744;8.958;2022-12-20T00:43:42;4.70;99.90
3202;DHT22;34843;48.744;8.958;2022-12-20T00:46:09;4.80;99.90
3202;DHT22;34843;48.744;8.958;2022-12-20T00:48:35;4.80;99.90
3202;DHT22;34843;48.744;8.958;2022-12-20T00:51:03;4.80;99.90
3202;DHT22;34843;48.744;8.958;2022-12-20T00:53:30;4.80;99.90
3202;DHT22;34843;48.744;8.958;2022-12-20T00:55:56;4.80;99.90
3202;DHT22;34843;48.744;8.958;2022-12-20T00:58:21;4.90;99.90
3202;DHT22;34843;48.744;8.958;2022-12-20T01:00:47;4.90;99.90
3202;DHT22;34843;48.744;8.958;2022-12-20T01:03:13;5.40;99.90
3202;DHT22;34843;48.744;8.958;2022-12-20T01:05:38;4.90;99.90
3202;DHT22;34843;48.744;8.958;2022-12-20T01:08:05;4.90;99.90
3202;DHT22;34843;48.744;8.958;2022-12-20T01:10:31;4.90;99.90
3202;DHT22;34843;48.744;8.958;2022-12-20T01:12:56;4.90;99.90
3202;DHT22;34843;48.744;8.958;2022-12-20T01:15:22;4.90;99.90
3202;DHT22;34843;48.744;8.958;2022-12-20T01:17:48;4.90;99.90
3202;DHT22;34843;48.744;8.958;2022-12-20T01:20:14;4.90;99.90
3202;DHT22;34843;48.744;8.958;2022-12-20T01:22:39;4.90;99.90
3202;DHT22;34843;48.744;8.958;2022-12-20T01:25:06;4.90;99.90
3202;DHT22;34843;48.744;8.958;2022-12-20T01:27:31;4.90;99.90
3202;DHT22;34843;48.744;8.958;2022-12-20T01:29:57;4.90;99.90
3202;DHT22;34843;48.744;8.958;2022-12-20T01:32:23;4.90;99.90
3202;DHT22;34843;48.744;8.958;2022-12-20T01:34:49;4.90;99.90
3202;DHT22;34843;48.744;8.958;2022-12-20T01:37:14;4.80;99.90
3202;DHT22;34843;48.744;8.958;2022-12-20T01:39:40;4.80;99.90
3202;DHT22;34843;48.744;8.958;2022-12-20T01:42:06;4.80;99.90
3202;DHT22;34843;48.744;8.958;2022-12-20T01:47:00;4.80;99.90
3202;DHT22;34843;48.744;8.958;2022-12-20T01:49:30;4.90;99.90
3202;DHT22;34843;48.744;8.958;2022-12-20T01:54:33;4.90;99.90
3202;DHT22;34843;48.744;8.958;2022-12-20T01:57:03;5.00;99.90
3202;DHT22;34843;48.744;8.958;2022-12-20T01:59:33;4.90;99.90
3202;DHT22;34843;48.744;8.958;2022-12-20T02:02:02;4.90;99.90
3202;DHT22;34843;48.744;8.958;2022-12-20T02:04:29;4.90;99.90
3202;DHT22;34843;48.744;8.958;2022-12-20T02:06:54;4.90;99.90
3202;DHT22;34843;48.744;8.958;2022-12-20T02:09:22;4.90;99.90
3202;DHT22;34843;48.744;8.958;2022-12-20T02:11:51;5.00;99.90
3202;DHT22;34843;48.744;8.958;2022-12-20T02:14:30;4.90;99.90
3202;DHT22;34843;48.744;8.958;2022-12-20T02:25:41;4.90;99.90
3202;DHT22;34843;48.744;8.958;2022-12-20T02:28:22;4.90;99.90
3202;DHT22;34843;48.744;8.958;2022-12-20T02:30:51;4.90;99.90
3202;DHT22;34843;48.744;8.958;2022-12-20T02:33:20;4.90;99.90
3202;DHT22;34843;48.744;8.958;2022-12-20T02:35:46;4.90;99.90
3202;DHT22;34843;48.744;8.958;2022-12-20T02:38:34;4.90;99.90
3202;DHT22;34843;48.744;8.958;2022-12-20T02:41:16;4.90;99.90
3202;DHT22;34843;48.744;8.958;2022-12-20T02:43:45;4.90;99.90
3202;DHT22;34843;48.744;8.958;2022-12-20T02:46:31;4.90;99.90
3202;DHT22;34843;48.744;8.958;2022-12-20T02:49:01;4.80;99.90
3202;DHT22;34843;48.744;8.958;2022-12-20T02:51:28;4.90;99.90
3202;DHT22;34843;48.744;8.958;2022-12-20T02:53:57;4.80;99.90
3202;DHT22;34843;48.744;8.958;2022-12-20T02:56:32;4.90;99.90
3202;DHT22;34843;48.744;8.958;2022-12-20T02:59:10;4.80;99.90
3202;DHT22;34843;48.744;8.958;2022-12-20T03:01:44;4.80;99.90
3202;DHT22;34843;48.744;8.958;2022-12-20T03:04:12;4.80;99.90
3202;DHT22;34843;48.744;8.958;2022-12-20T03:06:38;4.80;99.90
3202;DHT22;34843;48.744;8.958;2022-12-20T03:09:04;4.80;99.90
3202;DHT22;34843;48.744;8.958;2022-12-20T03:11:30;4.80;99.90
3202;DHT22;34843;48.744;8.958;2022-12-20T03:13:55;4.80;99.90
3202;DHT22;34843;48.744;8.958;2022-12-20T03:16:21;4.80;99.90
3202;DHT22;34843;48.744;8.958;2022-12-20T03:18:46;4.90;99.90
3202;DHT22;34843;48.744;8.958;2022-12-20T03:21:12;4.90;99.90
3202;DHT22;34843;48.744;8.958;2022-12-20T03:23:38;5.00;99.90
3202;DHT22;34843;48.744;8.958;2022-12-20T03:26:03;5.00;99.90
3202;DHT22;34843;48.744;8.958;2022-12-20T03:28:29;5.00;99.90
3202;DHT22;34843;48.744;8.958;2022-12-20T03:30:54;5.00;99.90
3202;DHT22;34843;48.744;8.958;2022-12-20T03:33:20;5.10;99.90
3202;DHT22;34843;48.744;8.958;2022-12-20T03:35:46;5.10;99.90
3202;DHT22;34843;48.744;8.958;2022-12-20T03:38:12;5.20;99.90
3202;DHT22;34843;48.744;8.958;2022-12-20T03:40:37;5.20;99.90
3202;DHT22;34843;48.744;8.958;2022-12-20T03:43:03;5.20;99.90
3202;DHT22;34843;48.744;8.958;2022-12-20T03:45:28;5.20;99.90
3202;DHT22;34843;48.744;8.958;2022-12-20T03:47:54;5.20;99.90
3202;DHT22;34843;48.744;8.958;2022-12-20T03:50:20;5.10;99.90
3202;DHT22;34843;48.744;8.958;2022-12-20T03:52:46;5.10;99.90
3202;DHT22;34843;48.744;8.958;2022-12-20T03:55:11;5.00;99.90
3202;DHT22;34843;48.744;8.958;2022-12-20T03:57:37;5.00;99.90
3202;DHT22;34843;48.744;8.958;2022-12-20T04:00:03;4.90;99.90
3202;DHT22;34843;48.744;8.958;2022-12-20T04:02:29;4.90;99.90
3202;DHT22;34843;48.744;8.958;2022-12-20T04:04:55;4.90;99.90
3202;DHT22;34843;48.744;8.958;2022-12-20T04:07:20;4.90;99.90
3202;DHT22;34843;48.744;8.958;2022-12-20T04:09:46;4.80;99.90
3202;DHT22;34843;48.744;8.958;2022-12-20T04:12:11;4.80;99.90
3202;DHT22;34843;48.744;8.958;2022-12-20T04:14:37;4.80;99.90
3202;DHT22;34843;48.744;8.958;2022-12-20T04:17:03;4.80;99.90
3202;DHT22;34843;48.744;8.958;2022-12-20T04:19:28;4.80;99.90
3202;DHT22;34843;48.744;8.958;2022-12-20T04:21:54;4.90;99.90
3202;DHT22;34843;48.744;8.958;2022-12-20T04:24:20;5.00;99.90
3202;DHT22;34843;48.744;8.958;2022-12-20T04:26:46;5.00;99.90
3202;DHT22;34843;48.744;8.958;2022-12-20T04:29:13;5.10;99.90
3202;DHT22;34843;48.744;8.958;2022-12-20T04:31:39;5.10;99.90
3202;DHT22;34843;48.744;8.958;2022-12-20T04:34:05;5.10;99.90
3202;DHT22;34843;48.744;8.958;2022-12-20T04:36:30;5.10;99.90
3202;DHT22;34843;48.744;8.958;2022-12-20T04:38:56;5.20;99.90
3202;DHT22;34843;48.744;8.958;2022-12-20T04:41:21;5.20;99.90
3202;DHT22;34843;48.744;8.958;2022-12-20T04:43:55;5.20;99.90
3202;DHT22;34843;48.744;8.958;2022-12-20T04:46:23;5.30;99.90
3202;DHT22;34843;48.744;8.958;2022-12-20T04:48:49;5.30;99.90
3202;DHT22;34843;48.744;8.958;2022-12-20T04:51:15;5.30;99.90
3202;DHT22;34843;48.744;8.958;2022-12-20T04:53:41;5.30;99.90
3202;DHT22;34843;48.744;8.958;2022-12-20T04:56:18;5.30;99.90
3202;DHT22;34843;48.744;8.958;2022-12-20T04:58:45;5.30;99.90
3202;DHT22;34843;48.744;8.958;2022-12-20T05:01:11;5.30;99.90
3202;DHT22;34843;48.744;8.958;2022-12-20T05:03:37;5.30;99.90
3202;DHT22;34843;48.744;8.958;2022-12-20T05:06:04;5.30;99.90
3202;DHT22;34843;48.744;8.958;2022-12-20T05:08:30;5.30;99.90
3202;DHT22;34843;48.744;8.958;2022-12-20T05:10:55;5.30;99.90
3202;DHT22;34843;48.744;8.958;2022-12-20T05:13:21;5.30;99.90
3202;DHT22;34843;48.744;8.958;2022-12-20T05:15:51;5.40;99.90
3202;DHT22;34843;48.744;8.958;2022-12-20T05:18:17;5.40;99.90
3202;DHT22;34843;48.744;8.958;2022-12-20T05:20:43;5.40;99.90
3202;DHT22;34843;48.744;8.958;2022-12-20T05:23:10;5.40;99.90
3202;DHT22;34843;48.744;8.958;2022-12-20T05:25:54;5.40;99.90
3202;DHT22;34843;48.744;8.958;2022-12-20T05:28:38;5.50;99.90
3202;DHT22;34843;48.744;8.958;2022-12-20T05:31:04;5.50;99.90
3202;DHT22;34843;48.744;8.958;2022-12-20T05:33:30;5.50;99.90
3202;DHT22;34843;48.744;8.958;2022-12-20T05:35:56;5.50;99.90
3202;DHT22;34843;48.744;8.958;2022-12-20T05:38:22;5.40;99.90
3202;DHT22;34843;48.744;8.958;2022-12-20T05:40:49;5.40;99.90
3202;DHT22;34843;48.744;8.958;2022-12-20T05:43:15;5.40;99.90
3202;DHT22;34843;48.744;8.958;2022-12-20T05:45:45;5.50;99.90
3202;DHT22;34843;48.744;8.958;2022-12-20T05:48:11;5.40;99.90
3202;DHT22;34843;48.744;8.958;2022-12-20T05:50:36;5.50;99.90
3202;DHT22;34843;48.744;8.958;2022-12-20T05:53:02;5.50;99.90
3202;DHT22;34843;48.744;8.958;2022-12-20T05:55:27;5.50;99.90
3202;DHT22;34843;48.744;8.958;2022-12-20T05:57:53;5.50;99.90
3202;DHT22;34843;48.744;8.958;2022-12-20T06:00:18;5.50;99.90
3202;DHT22;34843;48.744;8.958;2022-12-20T06:02:44;5.40;99.90
3202;DHT22;34843;48.744;8.958;2022-12-20T06:05:09;5.40;99.90
3202;DHT22;34843;48.744;8.958;2022-12-20T06:07:35;5.50;99.90
3202;DHT22;34843;48.744;8.958;2022-12-20T06:10:00;5.50;99.90
3202;DHT22;34843;48.744;8.958;2022-12-20T06:12:26;5.50;99.90
3202;DHT22;34843;48.744;8.958;2022-12-20T06:14:51;5.50;99.90
3202;DHT22;34843;48.744;8.958;2022-12-20T06:17:17;5.60;99.90
3202;DHT22;34843;48.744;8.958;2022-12-20T06:19:44;5.50;99.90
3202;DHT22;34843;48.744;8.958;2022-12-20T06:22:09;5.50;99.90
3202;DHT22;34843;48.744;8.958;2022-12-20T06:24:35;5.60;99.90
3202;DHT22;34843;48.744;8.958;2022-12-20T06:27:01;5.60;99.90
3202;DHT22;34843;48.744;8.958;2022-12-20T06:29:28;5.60;99.90
3202;DHT22;34843;48.744;8.958;2022-12-20T06:31:54;5.60;99.90
3202;DHT22;34843;48.744;8.958;2022-12-20T06:34:19;5.80;99.90
3202;DHT22;34843;48.744;8.958;2022-12-20T06:36:45;5.60;99.90
3202;DHT22;34843;48.744;8.958;2022-12-20T06:39:11;5.60;99.90
3202;DHT22;34843;48.744;8.958;2022-12-20T06:41:37;5.60;99.90
3202;DHT22;34843;48.744;8.958;2022-12-20T06:44:03;5.70;99.90
3202;DHT22;34843;48.744;8.958;2022-12-20T06:46:29;5.60;99.90
3202;DHT22;34843;48.744;8.958;2022-12-20T06:48:57;5.60;99.90
3202;DHT22;34843;48.744;8.958;2022-12-20T06:51:23;5.60;99.90
3202;DHT22;34843;48.744;8.958;2022-12-20T06:53:48;5.70;99.90
3202;DHT22;34843;48.744;8.958;2022-12-20T06:56:14;5.70;99.90
3202;DHT22;34843;48.744;8.958;2022-12-20T06:58:40;5.70;99.90
3202;DHT22;34843;48.744;8.958;2022-12-20T07:01:05;5.70;99.90
3202;DHT22;34843;48.744;8.958;2022-12-20T07:03:31;5.70;99.90
3202;DHT22;34843;48.744;8.958;2022-12-20T07:05:56;5.70;99.90
3202;DHT22;34843;48.744;8.958;2022-12-20T07:08:23;5.70;99.90
3202;DHT22;34843;48.744;8.958;2022-12-20T07:10:49;5.70;99.90
3202;DHT22;34843;48.744;8.958;2022-12-20T07:13:14;5.70;99.90
3202;DHT22;34843;48.744;8.958;2022-12-20T07:15:40;5.70;99.90
3202;DHT22;34843;48.744;8.958;2022-12-20T07:18:06;5.70;99.90
3202;DHT22;34843;48.744;8.958;2022-12-20T07:20:31;5.70;99.90
3202;DHT22;34843;48.744;8.958;2022-12-20T07:22:57;5.70;99.90
3202;DHT22;34843;48.744;8.958;2022-12-20T07:25:22;5.80;99.90
3202;DHT22;34843;48.744;8.958;2022-12-20T07:27:50;5.80;99.90
3202;DHT22;34843;48.744;8.958;2022-12-20T07:30:16;5.80;99.90
3202;DHT22;34843;48.744;8.958;2022-12-20T07:32:42;5.80;99.90
3202;DHT22;34843;48.744;8.958;2022-12-20T07:35:12;5.90;99.90
3202;DHT22;34843;48.744;8.958;2022-12-20T07:37:37;6.00;99.90
3202;DHT22;34843;48.744;8.958;2022-12-20T07:40:04;6.00;99.90
3202;DHT22;34843;48.744;8.958;2022-12-20T07:42:30;6.10;99.90
3202;DHT22;34843;48.744;8.958;2022-12-20T07:44:55;6.10;99.90
3202;DHT22;34843;48.744;8.958;2022-12-20T07:47:21;6.10;99.90
3202;DHT22;34843;48.744;8.958;2022-12-20T07:49:46;6.10;99.90
3202;DHT22;34843;48.744;8.958;2022-12-20T07:52:17;6.10;99.90
3202;DHT22;34843;48.744;8.958;2022-12-20T07:54:47;6.10;99.90
3202;DHT22;34843;48.744;8.958;2022-12-20T07:57:29;6.10;99.90
3202;DHT22;34843;48.744;8.958;2022-12-20T07:59:58;6.20;99.90
3202;DHT22;34843;48.744;8.958;2022-12-20T08:02:33;6.20;99.90
3202;DHT22;34843;48.744;8.958;2022-12-20T08:05:01;6.30;99.90
3202;DHT22;34843;48.744;8.958;2022-12-20T08:07:28;6.30;99.90
3202;DHT22;34843;48.744;8.958;2022-12-20T08:09:55;6.40;99.90
3202;DHT22;34843;48.744;8.958;2022-12-20T08:12:20;6.40;99.90
3202;DHT22;34843;48.744;8.958;2022-12-20T08:14:47;6.40;99.90
3202;DHT22;34843;48.744;8.958;2022-12-20T08:17:12;6.50;99.90
3202;DHT22;34843;48.744;8.958;2022-12-20T08:19:38;6.60;99.90
3202;DHT22;34843;48.744;8.958;2022-12-20T08:22:04;6.70;99.90
3202;DHT22;34843;48.744;8.958;2022-12-20T08:24:31;6.70;99.90
3202;DHT22;34843;48.744;8.958;2022-12-20T08:26:57;6.70;99.90
3202;DHT22;34843;48.744;8.958;2022-12-20T08:29:22;6.80;99.90
3202;DHT22;34843;48.744;8.958;2022-12-20T08:31:48;6.70;99.90
3202;DHT22;34843;48.744;8.958;2022-12-20T08:34:13;6.70;99.90
3202;DHT22;34843;48.744;8.958;2022-12-20T08:36:39;6.80;99.90
3202;DHT22;34843;48.744;8.958;2022-12-20T08:39:05;6.80;99.90
3202;DHT22;34843;48.744;8.958;2022-12-20T08:41:32;6.90;99.90
3202;DHT22;34843;48.744;8.958;2022-12-20T08:43:58;6.90;99.90
3202;DHT22;34843;48.744;8.958;2022-12-20T08:46:23;7.00;99.90
3202;DHT22;34843;48.744;8.958;2022-12-20T08:48:49;7.00;99.90
3202;DHT22;34843;48.744;8.958;2022-12-20T08:51:14;7.10;99.90
3202;DHT22;34843;48.744;8.958;2022-12-20T08:53:40;7.10;99.90
3202;DHT22;34843;48.744;8.958;2022-12-20T08:56:11;7.10;99.90
3202;DHT22;34843;48.744;8.958;2022-12-20T08:58:37;7.10;99.90
3202;DHT22;34843;48.744;8.958;2022-12-20T09:01:08;7.10;99.90
3202;DHT22;34843;48.744;8.958;2022-12-20T09:03:35;7.00;99.90
3202;DHT22;34843;48.744;8.958;2022-12-20T09:06:05;6.90;99.90
3202;DHT22;34843;48.744;8.958;2022-12-20T09:08:32;6.90;99.90
3202;DHT22;34843;48.744;8.958;2022-12-20T09:11:11;6.90;99.90
3202;DHT22;34843;48.744;8.958;2022-12-20T09:13:37;7.00;99.90
3202;DHT22;34843;48.744;8.958;2022-12-20T09:16:04;7.00;99.90
3202;DHT22;34843;48.744;8.958;2022-12-20T09:18:30;7.10;99.90
3202;DHT22;34843;48.744;8.958;2022-12-20T09:21:03;7.10;99.90
3202;DHT22;34843;48.744;8.958;2022-12-20T09:23:29;7.20;99.90
3202;DHT22;34843;48.744;8.958;2022-12-20T09:26:01;7.20;99.90
3202;DHT22;34843;48.744;8.958;2022-12-20T09:28:28;7.20;99.90
3202;DHT22;34843;48.744;8.958;2022-12-20T09:31:00;7.20;99.90
3202;DHT22;34843;48.744;8.958;2022-12-20T09:33:27;7.30;99.90
3202;DHT22;34843;48.744;8.958;2022-12-20T09:35:53;7.40;99.90
3202;DHT22;34843;48.744;8.958;2022-12-20T09:38:19;7.50;99.90
3202;DHT22;34843;48.744;8.958;2022-12-20T09:40:49;7.40;99.90
3202;DHT22;34843;48.744;8.958;2022-12-20T09:43:16;7.50;99.90
3202;DHT22;34843;48.744;8.958;2022-12-20T09:45:44;7.40;99.90
3202;DHT22;34843;48.744;8.958;2022-12-20T09:48:28;7.30;99.90
3202;DHT22;34843;48.744;8.958;2022-12-20T09:56:39;7.30;99.90
3202;DHT22;34843;48.744;8.958;2022-12-20T09:59:11;7.30;99.90
3202;DHT22;34843;48.744;8.958;2022-12-20T10:01:37;7.30;99.90
3202;DHT22;34843;48.744;8.958;2022-12-20T10:04:06;7.30;99.90
3202;DHT22;34843;48.744;8.958;2022-12-20T10:09:25;7.50;99.90
3202;DHT22;34843;48.744;8.958;2022-12-20T10:14:44;7.70;99.90
3202;DHT22;34843;48.744;8.958;2022-12-20T10:25:34;8.20;99.90
3202;DHT22;34843;48.744;8.958;2022-12-20T10:28:03;8.20;99.90
3202;DHT22;34843;48.744;8.958;2022-12-20T10:30:30;8.20;99.90
3202;DHT22;34843;48.744;8.958;2022-12-20T10:32:57;8.30;99.90
3202;DHT22;34843;48.744;8.958;2022-12-20T10:35:27;8.30;99.90
3202;DHT22;34843;48.744;8.958;2022-12-20T10:38:08;8.30;99.90
3202;DHT22;34843;48.744;8.958;2022-12-20T10:40:58;8.20;99.90
3202;DHT22;34843;48.744;8.958;2022-12-20T10:43:24;8.20;99.90
3202;DHT22;34843;48.744;8.958;2022-12-20T10:46:01;8.20;99.90
3202;DHT22;34843;48.744;8.958;2022-12-20T10:48:31;8.20;99.90
3202;DHT22;34843;48.744;8.958;2022-12-20T10:51:18;8.30;99.90
3202;DHT22;34843;48.744;8.958;2022-12-20T10:53:56;8.20;99.90
3202;DHT22;34843;48.744;8.958;2022-12-20T10:56:29;8.30;99.90
3202;DHT22;34843;48.744;8.958;2022-12-20T11:01:44;8.40;99.90
3202;DHT22;34843;48.744;8.958;2022-12-20T11:06:58;8.40;99.90
3202;DHT22;34843;48.744;8.958;2022-12-20T11:14:29;8.50;99.90
3202;DHT22;34843;48.744;8.958;2022-12-20T11:16:56;8.50;99.90
3202;DHT22;34843;48.744;8.958;2022-12-20T11:19:39;8.50;99.90
3202;DHT22;34843;48.744;8.958;2022-12-20T11:22:30;8.50;99.90
3202;DHT22;34843;48.744;8.958;2022-12-20T11:27:34;8.60;99.90
3202;DHT22;34843;48.744;8.958;2022-12-20T11:30:10;8.70;99.90
3202;DHT22;34843;48.744;8.958;2022-12-20T11:47:03;8.50;99.90
3202;DHT22;34843;48.744;8.958;2022-12-20T11:55:21;8.40;99.90
3202;DHT22;34843;48.744;8.958;2022-12-20T12:00:32;8.60;99.90
3202;DHT22;34843;48.744;8.958;2022-12-20T12:03:15;8.60;99.90
3202;DHT22;34843;48.744;8.958;2022-12-20T12:05:45;8.70;99.90
3202;DHT22;34843;48.744;8.958;2022-12-20T12:08:33;8.70;99.90
3202;DHT22;34843;48.744;8.958;2022-12-20T12:11:39;8.70;99.90
3202;DHT22;34843;48.744;8.958;2022-12-20T12:13:58;8.70;99.90
3202;DHT22;34843;48.744;8.958;2022-12-20T12:16:34;8.70;99.90
3202;DHT22;34843;48.744;8.958;2022-12-20T12:19:01;8.70;99.90
3202;DHT22;34843;48.744;8.958;2022-12-20T12:21:37;8.70;99.90
3202;DHT22;34843;48.744;8.958;2022-12-20T12:24:19;8.70;99.90
3202;DHT22;34843;48.744;8.958;2022-12-20T12:26:46;8.80;99.90
3202;DHT22;34843;48.744;8.958;2022-12-20T12:29:16;8.80;99.90
3202;DHT22;34843;48.744;8.958;2022-12-20T12:31:57;8.90;99.90
3202;DHT22;34843;48.744;8.958;2022-12-20T12:40:12;9.00;99.90
3202;DHT22;34843;48.744;8.958;2022-12-20T12:45:41;9.00;99.90
3202;DHT22;34843;48.744;8.958;2022-12-20T12:48:13;9.00;99.90
3202;DHT22;34843;48.744;8.958;2022-12-20T12:50:46;9.10;99.90
3202;DHT22;34843;48.744;8.958;2022-12-20T12:53:18;9.10;99.90
3202;DHT22;34843;48.744;8.958;2022-12-20T12:55:52;9.00;99.90
3202;DHT22;34843;48.744;8.958;2022-12-20T13:01:00;9.00;99.90
3202;DHT22;34843;48.744;8.958;2022-12-20T13:11:39;8.80;99.90
3202;DHT22;34843;48.744;8.958;2022-12-20T13:21:58;8.80;99.90
3202;DHT22;34843;48.744;8.958;2022-12-20T13:37:52;8.80;99.90
3202;DHT22;34843;48.744;8.958;2022-12-20T13:40:39;8.80;99.90
3202;DHT22;34843;48.744;8.958;2022-12-20T13:45:54;8.80;99.90
3202;DHT22;34843;48.744;8.958;2022-12-20T13:48:27;8.80;99.90
3202;DHT22;34843;48.744;8.958;2022-12-20T13:50:56;8.90;99.90
3202;DHT22;34843;48.744;8.958;2022-12-20T13:53:23;8.80;99.90
3202;DHT22;34843;48.744;8.958;2022-12-20T13:55:49;8.80;99.90
3202;DHT22;34843;48.744;8.958;2022-12-20T13:58:25;8.80;99.90
3202;DHT22;34843;48.744;8.958;2022-12-20T14:00:52;8.80;99.90
3202;DHT22;34843;48.744;8.958;2022-12-20T14:03:43;8.80;99.90
3202;DHT22;34843;48.744;8.958;2022-12-20T14:06:11;8.80;99.90
3202;DHT22;34843;48.744;8.958;2022-12-20T14:08:42;8.80;99.90
3202;DHT22;34843;48.744;8.958;2022-12-20T14:11:19;8.80;99.90
3202;DHT22;34843;48.744;8.958;2022-12-20T14:13:59;8.80;99.90
3202;DHT22;34843;48.744;8.958;2022-12-20T14:16:27;8.70;99.90
3202;DHT22;34843;48.744;8.958;2022-12-20T14:21:23;8.60;99.90
3202;DHT22;34843;48.744;8.958;2022-12-20T14:23:54;8.60;99.90
3202;DHT22;34843;48.744;8.958;2022-12-20T14:26:23;8.60;99.90
3202;DHT22;34843;48.744;8.958;2022-12-20T14:28:51;8.60;99.90
3202;DHT22;34843;48.744;8.958;2022-12-20T14:31:39;8.50;99.90
3202;DHT22;34843;48.744;8.958;2022-12-20T14:36:37;8.50;99.90
3202;DHT22;34843;48.744;8.958;2022-12-20T14:41:57;8.60;99.90
3202;DHT22;34843;48.744;8.958;2022-12-20T14:44:25;8.60;99.90
3202;DHT22;34843;48.744;8.958;2022-12-20T14:46:53;8.60;99.90
3202;DHT22;34843;48.744;8.958;2022-12-20T14:51:49;8.50;99.90
3202;DHT22;34843;48.744;8.958;2022-12-20T14:54:34;8.40;99.90
3202;DHT22;34843;48.744;8.958;2022-12-20T14:57:00;8.50;99.90
3202;DHT22;34843;48.744;8.958;2022-12-20T14:59:29;8.50;99.90
3202;DHT22;34843;48.744;8.958;2022-12-20T15:01:56;8.50;99.90
3202;DHT22;34843;48.744;8.958;2022-12-20T15:04:31;8.50;99.90
3202;DHT22;34843;48.744;8.958;2022-12-20T15:06:58;8.50;99.90
3202;DHT22;34843;48.744;8.958;2022-12-20T15:09:24;8.40;99.90
3202;DHT22;34843;48.744;8.958;2022-12-20T15:11:50;8.40;99.90
3202;DHT22;34843;48.744;8.958;2022-12-20T15:14:34;8.40;99.90
3202;DHT22;34843;48.744;8.958;2022-12-20T15:17:02;8.40;99.90
3202;DHT22;34843;48.744;8.958;2022-12-20T15:19:27;8.40;99.90
3202;DHT22;34843;48.744;8.958;2022-12-20T15:21:55;8.40;99.90
3202;DHT22;34843;48.744;8.958;2022-12-20T15:24:24;8.40;99.90
3202;DHT22;34843;48.744;8.958;2022-12-20T15:26:51;8.30;99.90
3202;DHT22;34843;48.744;8.958;2022-12-20T15:29:19;8.30;99.90
3202;DHT22;34843;48.744;8.958;2022-12-20T15:31:46;8.30;99.90
3202;DHT22;34843;48.744;8.958;2022-12-20T15:34:27;8.30;99.90
3202;DHT22;34843;48.744;8.958;2022-12-20T15:36:53;8.20;99.90
3202;DHT22;34843;48.744;8.958;2022-12-20T15:39:18;8.20;99.90
3202;DHT22;34843;48.744;8.958;2022-12-20T15:41:47;8.20;99.90
3202;DHT22;34843;48.744;8.958;2022-12-20T15:44:16;8.20;99.90
3202;DHT22;34843;48.744;8.958;2022-12-20T15:46:42;8.20;99.90
3202;DHT22;34843;48.744;8.958;2022-12-20T15:49:17;8.20;99.90
3202;DHT22;34843;48.744;8.958;2022-12-20T15:51:44;8.10;99.90
3202;DHT22;34843;48.744;8.958;2022-12-20T15:56:48;8.10;99.90
3202;DHT22;34843;48.744;8.958;2022-12-20T15:59:14;8.10;99.90
3202;DHT22;34843;48.744;8.958;2022-12-20T16:01:40;8.10;99.90
3202;DHT22;34843;48.744;8.958;2022-12-20T16:04:06;8.20;99.90
3202;DHT22;34843;48.744;8.958;2022-12-20T16:06:32;8.20;99.90
3202;DHT22;34843;48.744;8.958;2022-12-20T16:08:58;8.20;99.90
3202;DHT22;34843;48.744;8.958;2022-12-20T16:11:27;8.20;99.90
3202;DHT22;34843;48.744;8.958;2022-12-20T16:13:54;8.10;99.90
3202;DHT22;34843;48.744;8.958;2022-12-20T16:16:22;8.10;99.90
3202;DHT22;34843;48.744;8.958;2022-12-20T16:18:49;8.10;99.90
3202;DHT22;34843;48.744;8.958;2022-12-20T16:21:20;8.10;99.90
3202;DHT22;34843;48.744;8.958;2022-12-20T16:23:46;8.10;99.90
3202;DHT22;34843;48.744;8.958;2022-12-20T16:26:12;8.20;99.90
3202;DHT22;34843;48.744;8.958;2022-12-20T16:28:38;8.20;99.90
3202;DHT22;34843;48.744;8.958;2022-12-20T16:31:11;8.20;99.90
3202;DHT22;34843;48.744;8.958;2022-12-20T16:33:37;8.20;99.90
3202;DHT22;34843;48.744;8.958;2022-12-20T16:36:02;8.30;99.90
3202;DHT22;34843;48.744;8.958;2022-12-20T16:38:28;8.30;99.90
3202;DHT22;34843;48.744;8.958;2022-12-20T16:40:53;8.30;99.90
3202;DHT22;34843;48.744;8.958;2022-12-20T16:43:19;8.30;99.90
3202;DHT22;34843;48.744;8.958;2022-12-20T16:45:44;8.40;99.90
3202;DHT22;34843;48.744;8.958;2022-12-20T16:48:10;8.40;99.90
3202;DHT22;34843;48.744;8.958;2022-12-20T16:50:36;8.40;99.90
3202;DHT22;34843;48.744;8.958;2022-12-20T16:53:11;8.40;99.90
3202;DHT22;34843;48.744;8.958;2022-12-20T16:55:37;8.40;99.90
3202;DHT22;34843;48.744;8.958;2022-12-20T16:58:02;8.40;99.90
3202;DHT22;34843;48.744;8.958;2022-12-20T17:00:27;8.40;99.90
3202;DHT22;34843;48.744;8.958;2022-12-20T17:02:53;8.40;99.90
3202;DHT22;34843;48.744;8.958;2022-12-20T17:05:45;8.50;99.90
3202;DHT22;34843;48.744;8.958;2022-12-20T17:08:11;8.70;99.90
3202;DHT22;34843;48.744;8.958;2022-12-20T17:10:36;8.50;99.90
3202;DHT22;34843;48.744;8.958;2022-12-20T17:13:01;8.50;99.90
3202;DHT22;34843;48.744;8.958;2022-12-20T17:15:29;8.50;99.90
3202;DHT22;34843;48.744;8.958;2022-12-20T17:17:56;8.50;99.90
3202;DHT22;34843;48.744;8.958;2022-12-20T17:20:22;8.50;99.90
3202;DHT22;34843;48.744;8.958;2022-12-20T17:22:51;8.50;99.90
3202;DHT22;34843;48.744;8.958;2022-12-20T17:25:21;8.50;99.90
3202;DHT22;34843;48.744;8.958;2022-12-20T17:27:48;8.50;99.90
3202;DHT22;34843;48.744;8.958;2022-12-20T17:30:14;8.50;99.90
3202;DHT22;34843;48.744;8.958;2022-12-20T17:32:39;8.50;99.90
3202;DHT22;34843;48.744;8.958;2022-12-20T17:35:10;8.40;99.90
3202;DHT22;34843;48.744;8.958;2022-12-20T17:37:37;8.40;99.90
3202;DHT22;34843;48.744;8.958;2022-12-20T17:40:03;8.40;99.90
3202;DHT22;34843;48.744;8.958;2022-12-20T17:42:29;8.40;99.90
3202;DHT22;34843;48.744;8.958;2022-12-20T17:44:54;8.40;99.90
3202;DHT22;34843;48.744;8.958;2022-12-20T17:47:20;8.30;99.90
3202;DHT22;34843;48.744;8.958;2022-12-20T17:49:46;8.30;99.90
3202;DHT22;34843;48.744;8.958;2022-12-20T17:52:13;8.30;99.90
3202;DHT22;34843;48.744;8.958;2022-12-20T17:54:39;8.30;99.90
3202;DHT22;34843;48.744;8.958;2022-12-20T17:57:04;8.30;99.90
3202;DHT22;34843;48.744;8.958;2022-12-20T17:59:30;8.30;99.90
3202;DHT22;34843;48.744;8.958;2022-12-20T18:01:55;8.30;99.90
3202;DHT22;34843;48.744;8.958;2022-12-20T18:04:21;8.30;99.90
3202;DHT22;34843;48.744;8.958;2022-12-20T18:06:46;8.20;99.90
3202;DHT22;34843;48.744;8.958;2022-12-20T18:09:17;8.20;99.90
3202;DHT22;34843;48.744;8.958;2022-12-20T18:11:44;8.20;99.90
3202;DHT22;34843;48.744;8.958;2022-12-20T18:14:09;8.20;99.90
3202;DHT22;34843;48.744;8.958;2022-12-20T18:16:35;8.20;99.90